createdAt,value
2018-08-22T00:00:16.099Z,51.65
2018-08-22T00:01:20.239Z,51.24
2018-08-22T00:02:24.581Z,51.45
2018-08-22T00:03:28.944Z,51.13
2018-08-22T00:04:33.114Z,50.93
2018-08-22T00:05:37.282Z,51.48
2018-08-22T00:06:41.440Z,50.95
2018-08-22T00:07:45.590Z,50.94
2018-08-22T00:08:49.995Z,51.00
2018-08-22T00:09:54.122Z,50.72
2018-08-22T00:10:58.473Z,50.87
2018-08-22T00:12:02.623Z,50.74
2018-08-22T00:13:06.865Z,50.70
2018-08-22T00:14:11.014Z,51.42
2018-08-22T00:15:15.374Z,50.82
2018-08-22T00:16:19.496Z,50.84
2018-08-22T00:17:23.623Z,51.12
2018-08-22T00:18:28.011Z,51.41
2018-08-22T00:19:32.197Z,51.63
2018-08-22T00:20:36.422Z,51.42
2018-08-22T00:21:40.706Z,51.26
2018-08-22T00:22:44.933Z,51.83
2018-08-22T00:23:49.067Z,51.50
2018-08-22T00:24:53.209Z,51.07
2018-08-22T00:25:57.376Z,51.46
2018-08-22T00:27:01.555Z,51.49
2018-08-22T00:28:05.732Z,51.09
2018-08-22T00:29:09.933Z,51.79
2018-08-22T00:30:14.063Z,51.16
2018-08-22T00:31:18.217Z,51.57
2018-08-22T00:32:22.430Z,51.18
2018-08-22T00:33:26.568Z,51.79
2018-08-22T00:34:30.726Z,51.02
2018-08-22T00:35:35.126Z,51.33
2018-08-22T00:36:39.396Z,51.00
2018-08-22T00:37:43.567Z,51.12
2018-08-22T00:38:47.739Z,51.62
2018-08-22T00:39:51.930Z,51.06
2018-08-22T00:40:56.107Z,51.10
2018-08-22T00:42:00.319Z,51.45
2018-08-22T00:43:04.502Z,51.00
2018-08-22T00:44:08.674Z,51.01
2018-08-22T00:45:12.934Z,51.23
2018-08-22T00:46:17.094Z,50.95
2018-08-22T00:47:21.291Z,51.67
2018-08-22T00:48:25.510Z,51.20
2018-08-22T00:49:29.693Z,51.41
2018-08-22T00:50:33.851Z,50.99
2018-08-22T00:51:38.015Z,51.36
2018-08-22T00:52:42.472Z,51.18
2018-08-22T00:53:46.638Z,51.13
2018-08-22T00:54:50.822Z,51.28
2018-08-22T00:55:54.993Z,51.26
2018-08-22T00:56:59.142Z,51.29
2018-08-22T00:58:03.304Z,51.60
2018-08-22T00:59:07.506Z,51.07
2018-08-22T01:00:11.748Z,51.61
2018-08-22T01:01:15.935Z,51.28
2018-08-22T01:02:20.706Z,51.53
2018-08-22T01:03:24.869Z,51.13
2018-08-22T01:04:29.198Z,51.37
2018-08-22T01:05:33.773Z,51.75
2018-08-22T01:06:38.451Z,51.37
2018-08-22T01:07:42.630Z,51.64
2018-08-22T01:08:46.984Z,51.57
2018-08-22T01:09:51.156Z,51.35
2018-08-22T01:10:55.342Z,51.28
2018-08-22T01:11:59.540Z,51.24
2018-08-22T01:13:03.805Z,51.80
2018-08-22T01:14:08.307Z,51.32
2018-08-22T01:15:12.726Z,52.11
2018-08-22T01:16:17.103Z,52.20
2018-08-22T01:17:21.274Z,51.89
2018-08-22T01:18:25.422Z,51.63
2018-08-22T01:19:29.620Z,51.87
2018-08-22T01:20:33.839Z,51.74
2018-08-22T01:21:38.086Z,52.20
2018-08-22T01:22:42.391Z,52.33
2018-08-22T01:23:46.571Z,52.60
2018-08-22T01:24:50.784Z,51.99
2018-08-22T01:25:54.963Z,52.70
2018-08-22T01:26:59.189Z,52.75
2018-08-22T01:28:03.395Z,52.41
2018-08-22T01:29:07.542Z,52.20
2018-08-22T01:30:11.709Z,52.43
2018-08-22T01:31:16.063Z,52.54
2018-08-22T01:32:20.576Z,52.30
2018-08-22T01:33:25.082Z,52.61
2018-08-22T01:34:29.241Z,52.48
2018-08-22T01:35:33.390Z,52.85
2018-08-22T01:36:37.957Z,52.74
2018-08-22T01:37:42.078Z,53.20
2018-08-22T01:38:46.376Z,52.65
2018-08-22T01:39:50.655Z,53.14
2018-08-22T01:40:54.788Z,53.35
2018-08-22T01:41:58.947Z,53.23
2018-08-22T01:43:03.078Z,52.79
2018-08-22T01:44:07.229Z,53.55
2018-08-22T01:45:11.385Z,52.89
2018-08-22T01:46:15.510Z,53.01
2018-08-22T01:47:19.689Z,53.72
2018-08-22T01:48:23.847Z,53.75
2018-08-22T01:49:28.214Z,53.73
2018-08-22T01:50:32.348Z,53.90
2018-08-22T01:51:36.495Z,53.42
2018-08-22T01:52:40.678Z,53.70
2018-08-22T01:53:44.819Z,53.39
2018-08-22T01:54:48.960Z,53.42
2018-08-22T01:55:53.106Z,54.01
2018-08-22T01:56:57.240Z,54.25
2018-08-22T01:58:01.407Z,54.26
2018-08-22T01:59:05.547Z,54.29
2018-08-22T02:00:09.910Z,54.36
2018-08-22T02:01:14.058Z,53.99
2018-08-22T02:02:18.234Z,54.27
2018-08-22T02:03:22.503Z,53.93
2018-08-22T02:04:26.677Z,54.05
2018-08-22T02:05:30.811Z,54.57
2018-08-22T02:06:34.942Z,54.11
2018-08-22T02:07:39.100Z,54.98
2018-08-22T02:08:43.259Z,54.99
2018-08-22T02:09:47.415Z,54.83
2018-08-22T02:10:51.600Z,54.58
2018-08-22T02:11:55.804Z,54.52
2018-08-22T02:13:00.130Z,54.79
2018-08-22T02:14:04.493Z,55.24
2018-08-22T02:15:08.728Z,54.67
2018-08-22T02:16:12.944Z,55.37
2018-08-22T02:17:17.114Z,55.42
2018-08-22T02:18:21.271Z,54.76
2018-08-22T02:19:25.445Z,54.89
2018-08-22T02:20:29.593Z,54.92
2018-08-22T02:21:34.223Z,54.96
2018-08-22T02:22:38.354Z,55.04
2018-08-22T02:23:42.498Z,55.83
2018-08-22T02:24:46.694Z,55.14
2018-08-22T02:25:50.843Z,55.37
2018-08-22T02:26:54.991Z,55.43
2018-08-22T02:27:59.134Z,55.47
2018-08-22T02:29:03.567Z,56.03
2018-08-22T02:30:07.723Z,55.59
2018-08-22T02:31:11.940Z,55.69
2018-08-22T02:32:16.088Z,56.35
2018-08-22T02:33:20.420Z,56.21
2018-08-22T02:34:24.572Z,55.84
2018-08-22T02:35:28.756Z,56.12
2018-08-22T02:36:33.036Z,55.94
2018-08-22T02:37:37.387Z,55.87
2018-08-22T02:38:41.566Z,56.39
2018-08-22T02:39:45.722Z,56.16
2018-08-22T02:40:50.064Z,56.07
2018-08-22T02:41:54.227Z,56.34
2018-08-22T02:42:58.399Z,56.47
2018-08-22T02:44:02.704Z,56.84
2018-08-22T02:45:06.881Z,56.89
2018-08-22T02:46:11.067Z,56.29
2018-08-22T02:47:15.239Z,56.96
2018-08-22T02:48:19.490Z,56.99
2018-08-22T02:49:23.907Z,57.07
2018-08-22T02:50:28.062Z,56.34
2018-08-22T02:51:32.294Z,56.81
2018-08-22T02:52:36.794Z,57.18
2018-08-22T02:53:41.216Z,57.16
2018-08-22T02:54:45.375Z,57.02
2018-08-22T02:55:49.549Z,57.16
2018-08-22T02:56:53.753Z,57.16
2018-08-22T02:57:57.974Z,56.76
2018-08-22T02:59:02.155Z,56.83
2018-08-22T03:00:06.315Z,57.70
2018-08-22T03:01:10.486Z,57.72
2018-08-22T03:02:14.780Z,57.32
2018-08-22T03:03:19.126Z,57.40
2018-08-22T03:04:23.323Z,57.70
2018-08-22T03:05:27.504Z,57.34
2018-08-22T03:06:31.687Z,57.31
2018-08-22T03:07:35.884Z,57.83
2018-08-22T03:08:40.215Z,57.28
2018-08-22T03:09:44.347Z,57.37
2018-08-22T03:10:48.624Z,57.92
2018-08-22T03:11:53.106Z,57.34
2018-08-22T03:12:57.283Z,57.95
2018-08-22T03:14:01.456Z,58.03
2018-08-22T03:15:05.622Z,57.55
2018-08-22T03:16:10.162Z,58.23
2018-08-22T03:17:14.498Z,58.00
2018-08-22T03:18:18.707Z,57.95
2018-08-22T03:19:23.084Z,57.72
2018-08-22T03:20:27.391Z,57.95
2018-08-22T03:21:31.546Z,57.90
2018-08-22T03:22:35.720Z,57.49
2018-08-22T03:23:39.907Z,58.23
2018-08-22T03:24:44.082Z,58.22
2018-08-22T03:25:48.724Z,57.97
2018-08-22T03:26:53.291Z,57.86
2018-08-22T03:27:57.483Z,58.00
2018-08-22T03:29:01.694Z,57.83
2018-08-22T03:30:05.956Z,57.52
2018-08-22T03:31:10.095Z,58.44
2018-08-22T03:32:14.273Z,58.43
2018-08-22T03:33:18.432Z,58.26
2018-08-22T03:34:22.621Z,58.15
2018-08-22T03:35:26.798Z,58.90
2018-08-22T03:36:31.010Z,58.37
2018-08-22T03:37:35.186Z,58.27
2018-08-22T03:38:39.631Z,58.66
2018-08-22T03:39:43.800Z,58.92
2018-08-22T03:40:48.005Z,58.52
2018-08-22T03:41:52.209Z,58.42
2018-08-22T03:42:56.418Z,58.16
2018-08-22T03:44:00.725Z,58.65
2018-08-22T03:45:04.964Z,58.81
2018-08-22T03:46:09.341Z,58.37
2018-08-22T03:47:13.473Z,58.16
2018-08-22T03:48:17.921Z,58.97
2018-08-22T03:49:22.072Z,58.37
2018-08-22T03:50:26.318Z,59.07
2018-08-22T03:51:30.531Z,58.44
2018-08-22T03:52:34.799Z,58.70
2018-08-22T03:53:38.988Z,58.65
2018-08-22T03:54:43.752Z,58.68
2018-08-22T03:55:48.113Z,58.72
2018-08-22T03:56:52.260Z,59.25
2018-08-22T03:57:56.437Z,59.11
2018-08-22T03:59:00.622Z,58.54
2018-08-22T04:00:04.982Z,58.60
2018-08-22T04:01:09.175Z,59.28
2018-08-22T04:02:13.323Z,59.28
2018-08-22T04:03:17.496Z,59.23
2018-08-22T04:04:21.656Z,59.46
2018-08-22T04:05:25.842Z,58.93
2018-08-22T04:06:30.198Z,58.87
2018-08-22T04:07:34.365Z,58.94
2018-08-22T04:08:38.518Z,58.86
2018-08-22T04:09:42.674Z,59.15
2018-08-22T04:10:46.836Z,58.73
2018-08-22T04:11:57.475Z,59.43
2018-08-22T04:13:01.627Z,59.41
2018-08-22T04:14:05.807Z,58.71
2018-08-22T04:15:10.151Z,59.25
2018-08-22T04:16:14.290Z,58.72
2018-08-22T04:17:18.560Z,59.10
2018-08-22T04:18:22.697Z,59.42
2018-08-22T04:19:26.851Z,58.99
2018-08-22T04:20:31.002Z,58.76
2018-08-22T04:21:35.175Z,59.15
2018-08-22T04:22:40.191Z,59.07
2018-08-22T04:23:44.346Z,59.22
2018-08-22T04:24:48.521Z,58.57
2018-08-22T04:25:52.668Z,58.49
2018-08-22T04:26:56.818Z,58.56
2018-08-22T04:28:01.021Z,59.13
2018-08-22T04:29:05.504Z,58.73
2018-08-22T04:30:09.672Z,59.08
2018-08-22T04:31:13.824Z,58.97
2018-08-22T04:32:18.048Z,59.17
2018-08-22T04:33:22.314Z,58.52
2018-08-22T04:34:26.471Z,59.01
2018-08-22T04:35:30.765Z,59.16
2018-08-22T04:36:34.969Z,58.58
2018-08-22T04:37:39.176Z,59.33
2018-08-22T04:38:43.654Z,58.61
2018-08-22T04:39:47.950Z,58.87
2018-08-22T04:40:52.132Z,59.30
2018-08-22T04:41:56.312Z,58.77
2018-08-22T04:43:00.503Z,59.25
2018-08-22T04:44:04.822Z,58.65
2018-08-22T04:45:08.957Z,58.58
2018-08-22T04:46:13.122Z,58.64
2018-08-22T04:47:17.302Z,58.54
2018-08-22T04:48:21.841Z,59.16
2018-08-22T04:49:25.986Z,59.12
2018-08-22T04:50:30.217Z,58.76
2018-08-22T04:51:34.564Z,58.73
2018-08-22T04:52:38.693Z,59.57
2018-08-22T04:53:42.990Z,59.61
2018-08-22T04:54:47.188Z,59.52
2018-08-22T04:55:51.411Z,59.20
2018-08-22T04:56:55.601Z,59.16
2018-08-22T04:57:59.787Z,60.01
2018-08-22T04:59:03.987Z,59.59
2018-08-22T05:00:08.948Z,59.35
2018-08-22T05:01:13.093Z,60.20
2018-08-22T05:02:17.247Z,59.88
2018-08-22T05:03:21.424Z,59.76
2018-08-22T05:04:25.707Z,59.39
2018-08-22T05:05:29.916Z,60.02
2018-08-22T05:06:34.251Z,59.60
2018-08-22T05:07:38.667Z,59.65
2018-08-22T05:08:42.866Z,60.39
2018-08-22T05:09:47.040Z,60.27
2018-08-22T05:10:51.255Z,60.35
2018-08-22T05:11:55.604Z,60.00
2018-08-22T05:12:59.942Z,59.72
2018-08-22T05:14:04.148Z,59.63
2018-08-22T05:15:08.564Z,60.08
2018-08-22T05:16:12.755Z,59.53
2018-08-22T05:17:16.930Z,60.17
2018-08-22T05:18:21.112Z,60.19
2018-08-22T05:19:32.084Z,60.27
2018-08-22T05:20:36.245Z,59.76
2018-08-22T05:21:40.516Z,60.31
2018-08-22T05:22:44.700Z,60.22
2018-08-22T05:23:48.882Z,60.43
2018-08-22T05:24:53.079Z,59.95
2018-08-22T05:25:57.220Z,60.62
2018-08-22T05:27:01.425Z,60.04
2018-08-22T05:28:05.972Z,60.17
2018-08-22T05:29:10.543Z,60.81
2018-08-22T05:30:14.819Z,60.22
2018-08-22T05:31:19.160Z,59.98
2018-08-22T05:32:23.340Z,60.74
2018-08-22T05:33:27.528Z,60.42
2018-08-22T05:34:31.679Z,60.15
2018-08-22T05:35:35.889Z,60.56
2018-08-22T05:36:40.032Z,60.82
2018-08-22T05:37:44.198Z,60.42
2018-08-22T05:38:48.551Z,60.62
2018-08-22T05:39:52.744Z,60.50
2018-08-22T05:40:57.028Z,60.18
2018-08-22T05:42:01.187Z,60.08
2018-08-22T05:43:05.467Z,59.93
2018-08-22T05:44:09.656Z,60.22
2018-08-22T05:45:13.863Z,60.62
2018-08-22T05:46:18.044Z,60.31
2018-08-22T05:47:22.287Z,60.28
2018-08-22T05:48:26.518Z,60.53
2018-08-22T05:49:30.854Z,60.34
2018-08-22T05:50:35.138Z,59.66
2018-08-22T05:51:39.521Z,59.81
2018-08-22T05:52:43.685Z,59.82
2018-08-22T05:53:47.885Z,59.88
2018-08-22T05:54:52.078Z,59.89
2018-08-22T05:55:56.289Z,59.29
2018-08-22T05:57:00.426Z,59.46
2018-08-22T05:58:04.728Z,59.48
2018-08-22T05:59:08.931Z,58.80
2018-08-22T06:00:13.123Z,58.74
2018-08-22T06:01:17.418Z,58.81
2018-08-22T06:02:21.704Z,58.49
2018-08-22T06:03:25.921Z,59.15
2018-08-22T06:04:30.092Z,58.42
2018-08-22T06:05:34.445Z,58.82
2018-08-22T06:06:38.603Z,57.96
2018-08-22T06:07:42.854Z,58.29
2018-08-22T06:08:47.035Z,58.31
2018-08-22T06:09:51.263Z,58.45
2018-08-22T06:10:55.428Z,58.37
2018-08-22T06:11:59.626Z,57.69
2018-08-22T06:13:04.438Z,58.04
2018-08-22T06:14:08.595Z,57.69
2018-08-22T06:15:12.774Z,57.44
2018-08-22T06:16:16.948Z,57.70
2018-08-22T06:17:21.621Z,57.53
2018-08-22T06:18:25.768Z,57.94
2018-08-22T06:19:30.032Z,57.40
2018-08-22T06:20:34.224Z,57.49
2018-08-22T06:21:38.646Z,56.83
2018-08-22T06:22:42.802Z,57.47
2018-08-22T06:23:46.988Z,57.03
2018-08-22T06:24:51.200Z,56.77
2018-08-22T06:25:55.467Z,57.11
2018-08-22T06:26:59.671Z,56.47
2018-08-22T06:28:03.892Z,56.26
2018-08-22T06:29:08.084Z,56.43
2018-08-22T06:30:12.346Z,56.83
2018-08-22T06:31:16.594Z,56.29
2018-08-22T06:32:20.967Z,56.06
2018-08-22T06:33:25.279Z,56.17
2018-08-22T06:34:29.470Z,55.98
2018-08-22T06:35:34.145Z,56.37
2018-08-22T06:36:38.544Z,55.76
2018-08-22T06:37:42.759Z,56.43
2018-08-22T06:38:46.964Z,55.54
2018-08-22T06:39:51.567Z,55.55
2018-08-22T06:40:55.908Z,55.57
2018-08-22T06:42:00.699Z,55.96
2018-08-22T06:43:04.863Z,55.70
2018-08-22T06:44:09.183Z,55.80
2018-08-22T06:45:13.318Z,56.26
2018-08-22T06:46:17.490Z,56.37
2018-08-22T06:47:21.739Z,56.30
2018-08-22T06:48:26.192Z,56.85
2018-08-22T06:49:30.382Z,56.55
2018-08-22T06:50:34.644Z,56.62
2018-08-22T06:51:38.808Z,56.30
2018-08-22T06:52:43.016Z,55.67
2018-08-22T06:53:47.179Z,55.86
2018-08-22T06:54:51.396Z,55.48
2018-08-22T06:55:55.578Z,55.82
2018-08-22T06:56:59.777Z,55.50
2018-08-22T06:58:03.975Z,55.88
2018-08-22T06:59:08.124Z,55.71
2018-08-22T07:00:12.308Z,55.35
2018-08-22T07:01:16.638Z,56.12
2018-08-22T07:02:21.076Z,55.56
2018-08-22T07:03:25.486Z,55.73
2018-08-22T07:04:29.672Z,56.08
2018-08-22T07:05:33.864Z,56.32
2018-08-22T07:06:38.016Z,55.59
2018-08-22T07:07:42.176Z,56.01
2018-08-22T07:08:46.382Z,56.08
2018-08-22T07:09:50.557Z,55.81
2018-08-22T07:10:54.715Z,56.06
2018-08-22T07:11:58.876Z,55.71
2018-08-22T07:13:03.157Z,56.20
2018-08-22T07:14:07.775Z,55.84
2018-08-22T07:15:12.061Z,56.10
2018-08-22T07:16:16.216Z,56.32
2018-08-22T07:17:20.377Z,56.42
2018-08-22T07:18:24.548Z,56.18
2018-08-22T07:19:28.796Z,56.37
2018-08-22T07:20:32.922Z,56.03
2018-08-22T07:21:37.128Z,56.18
2018-08-22T07:22:41.287Z,55.83
2018-08-22T07:23:45.451Z,55.77
2018-08-22T07:24:49.925Z,55.75
2018-08-22T07:25:54.063Z,55.97
2018-08-22T07:26:58.515Z,55.49
2018-08-22T07:28:02.807Z,55.52
2018-08-22T07:29:06.963Z,55.74
2018-08-22T07:30:11.352Z,56.15
2018-08-22T07:31:15.463Z,56.13
2018-08-22T07:32:19.744Z,55.35
2018-08-22T07:33:24.006Z,55.13
2018-08-22T07:34:28.524Z,55.26
2018-08-22T07:35:32.864Z,55.92
2018-08-22T07:36:37.104Z,55.90
2018-08-22T07:37:41.264Z,55.19
2018-08-22T07:38:45.420Z,55.50
2018-08-22T07:39:49.629Z,55.33
2018-08-22T07:40:53.994Z,55.79
2018-08-22T07:41:58.171Z,55.07
2018-08-22T07:43:02.356Z,55.61
2018-08-22T07:44:07.207Z,55.08
2018-08-22T07:45:11.383Z,55.60
2018-08-22T07:46:15.652Z,55.39
2018-08-22T07:47:19.872Z,55.16
2018-08-22T07:48:24.044Z,55.71
2018-08-22T07:49:28.247Z,55.10
2018-08-22T07:50:33.024Z,55.05
2018-08-22T07:51:37.302Z,54.79
2018-08-22T07:52:48.885Z,55.48
2018-08-22T07:53:53.045Z,54.96
2018-08-22T07:54:57.226Z,54.85
2018-08-22T07:56:01.603Z,54.56
2018-08-22T07:57:05.785Z,54.74
2018-08-22T07:58:10.219Z,55.37
2018-08-22T07:59:16.040Z,55.08
2018-08-22T08:00:20.225Z,54.26
2018-08-22T08:01:24.428Z,54.73
2018-08-22T08:02:28.678Z,54.85
2018-08-22T08:03:33.035Z,54.93
2018-08-22T08:04:37.292Z,54.92
2018-08-22T08:05:41.466Z,54.13
2018-08-22T08:06:45.703Z,54.83
2018-08-22T08:07:49.887Z,54.86
2018-08-22T08:08:54.068Z,54.50
2018-08-22T08:09:58.244Z,54.67
2018-08-22T08:11:02.492Z,54.32
2018-08-22T08:12:06.611Z,54.34
2018-08-22T08:13:16.557Z,54.38
2018-08-22T08:14:20.699Z,54.01
2018-08-22T08:15:24.916Z,54.24
2018-08-22T08:16:29.154Z,53.43
2018-08-22T08:17:33.571Z,53.60
2018-08-22T08:18:37.795Z,53.45
2018-08-22T08:19:42.002Z,54.13
2018-08-22T08:20:46.150Z,53.32
2018-08-22T08:21:50.338Z,53.22
2018-08-22T08:22:54.527Z,53.54
2018-08-22T08:23:58.717Z,53.91
2018-08-22T08:25:02.887Z,53.13
2018-08-22T08:26:07.097Z,53.27
2018-08-22T08:27:11.239Z,53.72
2018-08-22T08:28:15.448Z,53.36
2018-08-22T08:29:19.634Z,53.79
2018-08-22T08:30:23.809Z,53.38
2018-08-22T08:31:28.258Z,53.89
2018-08-22T08:32:32.431Z,53.52
2018-08-22T08:33:36.611Z,53.53
2018-08-22T08:34:40.815Z,53.57
2018-08-22T08:35:45.052Z,53.53
2018-08-22T08:36:49.386Z,52.86
2018-08-22T08:37:53.549Z,52.62
2018-08-22T08:38:57.729Z,52.49
2018-08-22T08:40:01.912Z,52.31
2018-08-22T08:41:06.274Z,52.20
2018-08-22T08:42:10.418Z,52.20
2018-08-22T08:43:14.602Z,52.66
2018-08-22T08:44:18.769Z,51.87
2018-08-22T08:45:23.010Z,51.49
2018-08-22T08:46:27.334Z,51.50
2018-08-22T08:47:31.507Z,51.96
2018-08-22T08:48:36.359Z,51.70
2018-08-22T08:49:40.784Z,51.47
2018-08-22T08:50:44.889Z,51.35
2018-08-22T08:51:57.263Z,51.73
2018-08-22T08:53:01.403Z,51.23
2018-08-22T08:54:05.634Z,51.82
2018-08-22T08:55:10.193Z,51.50
2018-08-22T08:56:14.602Z,51.64
2018-08-22T08:57:18.811Z,51.20
2018-08-22T08:58:22.956Z,51.66
2018-08-22T08:59:27.126Z,52.13
2018-08-22T09:00:31.319Z,51.34
2018-08-22T09:01:35.488Z,51.01
2018-08-22T09:02:39.730Z,51.79
2018-08-22T09:03:44.119Z,51.77
2018-08-22T09:04:48.275Z,51.12
2018-08-22T09:05:52.653Z,51.33
2018-08-22T09:06:57.071Z,51.51
2018-08-22T09:08:01.239Z,51.93
2018-08-22T09:09:08.303Z,51.35
2018-08-22T09:10:12.535Z,52.17
2018-08-22T09:11:16.681Z,52.28
2018-08-22T09:12:21.168Z,52.20
2018-08-22T09:13:25.262Z,52.51
2018-08-22T09:14:29.944Z,52.27
2018-08-22T09:15:34.132Z,52.39
2018-08-22T09:16:38.280Z,51.88
2018-08-22T09:17:42.496Z,52.41
2018-08-22T09:18:46.639Z,52.30
2018-08-22T09:19:50.820Z,51.56
2018-08-22T09:20:55.012Z,51.91
2018-08-22T09:21:59.144Z,51.89
2018-08-22T09:23:03.417Z,51.81
2018-08-22T09:24:07.606Z,52.03
2018-08-22T09:25:11.829Z,51.72
2018-08-22T09:26:15.983Z,51.96
2018-08-22T09:27:20.171Z,51.83
2018-08-22T09:28:24.465Z,51.53
2018-08-22T09:29:28.641Z,51.46
2018-08-22T09:30:32.986Z,51.43
2018-08-22T09:31:37.382Z,51.50
2018-08-22T09:32:41.573Z,52.10
2018-08-22T09:33:46.372Z,52.04
2018-08-22T09:34:50.742Z,51.57
2018-08-22T09:35:54.920Z,52.22
2018-08-22T09:36:59.130Z,51.74
2018-08-22T09:38:03.283Z,52.17
2018-08-22T09:39:09.874Z,51.09
2018-08-22T09:40:14.121Z,51.01
2018-08-22T09:41:18.536Z,50.04
2018-08-22T09:42:22.843Z,50.92
2018-08-22T09:43:27.014Z,50.61
2018-08-22T09:44:31.414Z,50.09
2018-08-22T09:45:35.567Z,49.79
2018-08-22T09:46:40.356Z,50.50
2018-08-22T09:47:44.575Z,50.01
2018-08-22T09:48:48.758Z,50.30
2018-08-22T09:49:52.951Z,49.81
2018-08-22T09:50:57.215Z,49.88
2018-08-22T09:52:01.320Z,50.37
2018-08-22T09:53:06.042Z,50.02
2018-08-22T09:54:10.239Z,49.91
2018-08-22T09:55:14.410Z,49.65
2018-08-22T09:56:18.573Z,50.73
2018-08-22T09:57:23.376Z,50.30
2018-08-22T09:58:27.613Z,50.68
2018-08-22T09:59:31.793Z,50.71
2018-08-22T10:00:41.304Z,49.93
2018-08-22T10:01:45.862Z,49.76
2018-08-22T10:02:50.093Z,49.80
2018-08-22T10:03:57.500Z,50.16
2018-08-22T10:05:01.758Z,49.76
2018-08-22T10:06:06.049Z,49.46
2018-08-22T10:07:10.302Z,49.33
2018-08-22T10:08:14.376Z,49.17
2018-08-22T10:09:22.025Z,49.54
2018-08-22T10:10:26.266Z,49.50
2018-08-22T10:11:30.443Z,49.92
2018-08-22T10:12:34.615Z,50.18
2018-08-22T10:13:38.820Z,49.30
2018-08-22T10:14:43.022Z,50.21
2018-08-22T10:15:47.185Z,49.92
2018-08-22T10:16:51.390Z,49.21
2018-08-22T10:17:55.544Z,49.66
2018-08-22T10:18:59.740Z,49.06
2018-08-22T10:20:04.007Z,49.44
2018-08-22T10:21:08.172Z,50.04
2018-08-22T10:22:12.378Z,49.39
2018-08-22T10:23:16.536Z,49.13
2018-08-22T10:24:20.852Z,49.17
2018-08-22T10:25:25.040Z,49.84
2018-08-22T10:26:29.297Z,49.82
2018-08-22T10:27:33.691Z,48.82
2018-08-22T10:28:37.868Z,49.58
2018-08-22T10:29:42.208Z,49.56
2018-08-22T10:30:46.395Z,49.08
2018-08-22T10:31:50.861Z,49.51
2018-08-22T10:32:55.150Z,49.35
2018-08-22T10:33:59.202Z,49.81
2018-08-22T10:35:03.423Z,49.31
2018-08-22T10:36:07.619Z,49.66
2018-08-22T10:37:11.763Z,49.14
2018-08-22T10:38:15.937Z,49.66
2018-08-22T10:39:20.281Z,49.08
2018-08-22T10:40:24.623Z,49.62
2018-08-22T10:41:29.108Z,49.02
2018-08-22T10:42:33.303Z,49.14
2018-08-22T10:43:37.519Z,48.80
2018-08-22T10:44:41.696Z,48.72
2018-08-22T10:45:45.957Z,48.96
2018-08-22T10:46:50.111Z,48.42
2018-08-22T10:47:54.410Z,48.89
2018-08-22T10:48:58.577Z,48.85
2018-08-22T10:50:02.770Z,48.65
2018-08-22T10:51:07.655Z,47.75
2018-08-22T10:52:11.831Z,48.37
2018-08-22T10:53:16.028Z,48.50
2018-08-22T10:54:20.251Z,47.95
2018-08-22T10:55:24.444Z,48.36
2018-08-22T10:56:28.825Z,47.85
2018-08-22T10:57:33.027Z,48.20
2018-08-22T10:58:37.201Z,47.36
2018-08-22T10:59:41.415Z,47.52
2018-08-22T11:00:45.616Z,47.53
2018-08-22T11:01:49.797Z,47.84
2018-08-22T11:02:54.057Z,47.60
2018-08-22T11:03:58.223Z,47.17
2018-08-22T11:05:09.021Z,47.43
2018-08-22T11:06:13.175Z,47.56
2018-08-22T11:07:18.076Z,47.12
2018-08-22T11:08:22.249Z,46.75
2018-08-22T11:09:26.438Z,47.56
2018-08-22T11:10:30.858Z,47.20
2018-08-22T11:11:35.070Z,47.28
2018-08-22T11:12:39.378Z,47.12
2018-08-22T11:13:43.539Z,46.65
2018-08-22T11:14:47.833Z,47.16
2018-08-22T11:15:52.067Z,47.46
2018-08-22T11:16:56.223Z,46.87
2018-08-22T11:18:00.547Z,46.62
2018-08-22T11:19:04.813Z,46.71
2018-08-22T11:20:09.495Z,46.88
2018-08-22T11:21:24.966Z,46.69
2018-08-22T11:22:40.247Z,46.71
2018-08-22T11:23:55.663Z,46.99
2018-08-22T11:25:11.362Z,46.58
2018-08-22T11:26:27.072Z,46.56
2018-08-22T11:27:42.551Z,46.86
2018-08-22T11:28:58.023Z,47.19
2018-08-22T11:30:13.590Z,47.02
2018-08-22T11:31:29.465Z,46.97
2018-08-22T11:32:45.015Z,46.11
2018-08-22T11:34:00.572Z,46.00
2018-08-22T11:35:03.693Z,45.97
2018-08-22T11:36:07.041Z,46.37
2018-08-22T11:37:12.615Z,45.70
2018-08-22T11:38:16.820Z,46.24
2018-08-22T11:39:21.448Z,45.73
2018-08-22T11:40:25.647Z,45.93
2018-08-22T11:41:30.633Z,46.05
2018-08-22T11:42:34.817Z,45.14
2018-08-22T11:43:38.980Z,45.08
2018-08-22T11:44:43.342Z,44.58
2018-08-22T11:45:47.523Z,45.07
2018-08-22T11:46:51.834Z,44.30
2018-08-22T11:47:55.997Z,44.74
2018-08-22T11:49:00.167Z,44.35
2018-08-22T11:50:04.368Z,44.62
2018-08-22T11:51:08.715Z,43.97
2018-08-22T11:52:12.867Z,44.55
2018-08-22T11:53:17.054Z,44.68
2018-08-22T11:54:21.436Z,45.14
2018-08-22T11:55:25.845Z,45.27
2018-08-22T11:56:30.011Z,44.77
2018-08-22T11:57:34.164Z,45.00
2018-08-22T11:58:38.379Z,45.49
2018-08-22T11:59:42.573Z,45.62
2018-08-22T12:00:47.036Z,45.51
2018-08-22T12:01:51.604Z,45.20
2018-08-22T12:02:55.723Z,45.34
2018-08-22T12:03:59.912Z,45.19
2018-08-22T12:05:04.266Z,45.03
2018-08-22T12:06:08.428Z,44.95
2018-08-22T12:07:12.611Z,44.98
2018-08-22T12:08:17.026Z,44.68
2018-08-22T12:09:21.319Z,44.44
2018-08-22T12:10:29.656Z,45.29
2018-08-22T12:11:33.820Z,44.57
2018-08-22T12:12:38.112Z,45.14
2018-08-22T12:13:42.286Z,45.03
2018-08-22T12:14:46.681Z,44.89
2018-08-22T12:15:50.901Z,44.74
2018-08-22T12:16:55.054Z,44.67
2018-08-22T12:17:59.443Z,44.88
2018-08-22T12:19:03.673Z,45.14
2018-08-22T12:20:08.301Z,44.91
2018-08-22T12:21:12.452Z,44.72
2018-08-22T12:22:16.616Z,44.74
2018-08-22T12:23:20.840Z,44.12
2018-08-22T12:24:24.948Z,44.48
2018-08-22T12:25:29.171Z,44.34
2018-08-22T12:26:33.345Z,44.22
2018-08-22T12:27:37.806Z,44.01
2018-08-22T12:28:42.256Z,43.62
2018-08-22T12:29:46.404Z,43.98
2018-08-22T12:30:50.605Z,44.35
2018-08-22T12:31:55.066Z,43.88
2018-08-22T12:32:59.212Z,43.86
2018-08-22T12:34:03.385Z,43.79
2018-08-22T12:35:07.988Z,43.81
2018-08-22T12:36:12.163Z,43.51
2018-08-22T12:37:16.501Z,43.38
2018-08-22T12:38:20.663Z,43.17
2018-08-22T12:39:24.808Z,43.63
2018-08-22T12:40:28.955Z,43.65
2018-08-22T12:41:33.528Z,43.66
2018-08-22T12:42:37.672Z,43.63
2018-08-22T12:43:41.876Z,43.68
2018-08-22T12:44:46.051Z,43.75
2018-08-22T12:45:50.450Z,43.61
2018-08-22T12:46:54.648Z,42.97
2018-08-22T12:47:58.832Z,43.34
2018-08-22T12:49:03.015Z,43.72
2018-08-22T12:50:07.275Z,42.87
2018-08-22T12:51:11.782Z,43.64
2018-08-22T12:52:16.080Z,43.32
2018-08-22T12:53:20.442Z,42.87
2018-08-22T12:54:24.659Z,43.13
2018-08-22T12:55:28.850Z,43.65
2018-08-22T12:56:33.122Z,43.81
2018-08-22T12:57:37.525Z,43.27
2018-08-22T12:58:41.676Z,43.04
2018-08-22T12:59:45.891Z,43.07
2018-08-22T13:00:50.097Z,42.73
2018-08-22T13:01:54.300Z,42.99
2018-08-22T13:02:58.499Z,43.08
2018-08-22T13:04:02.731Z,43.30
2018-08-22T13:05:06.950Z,42.98
2018-08-22T13:06:11.167Z,43.04
2018-08-22T13:07:15.334Z,42.91
2018-08-22T13:08:19.556Z,42.66
2018-08-22T13:09:23.764Z,42.94
2018-08-22T13:10:28.053Z,42.73
2018-08-22T13:11:32.387Z,42.48
2018-08-22T13:12:36.563Z,42.57
2018-08-22T13:13:40.756Z,42.72
2018-08-22T13:14:44.938Z,43.11
2018-08-22T13:15:49.102Z,42.71
2018-08-22T13:16:53.322Z,42.70
2018-08-22T13:17:57.480Z,42.80
2018-08-22T13:19:02.271Z,42.41
2018-08-22T13:20:06.668Z,42.32
2018-08-22T13:21:10.872Z,42.50
2018-08-22T13:22:15.044Z,42.58
2018-08-22T13:23:19.216Z,43.01
2018-08-22T13:24:23.604Z,42.44
2018-08-22T13:25:27.795Z,42.10
2018-08-22T13:26:31.998Z,42.17
2018-08-22T13:27:36.192Z,41.97
2018-08-22T13:28:40.354Z,41.86
2018-08-22T13:29:44.554Z,41.85
2018-08-22T13:30:48.910Z,41.97
2018-08-22T13:31:53.079Z,41.40
2018-08-22T13:32:57.271Z,41.55
2018-08-22T13:34:01.628Z,41.89
2018-08-22T13:35:06.252Z,41.61
2018-08-22T13:36:10.529Z,41.74
2018-08-22T13:37:14.832Z,42.01
2018-08-22T13:38:19.236Z,41.98
2018-08-22T13:39:23.438Z,41.90
2018-08-22T13:40:27.639Z,41.85
2018-08-22T13:41:31.838Z,41.88
2018-08-22T13:42:36.336Z,41.76
2018-08-22T13:43:40.679Z,41.99
2018-08-22T13:44:44.850Z,41.58
2018-08-22T13:45:49.032Z,42.00
2018-08-22T13:46:53.251Z,42.23
2018-08-22T13:47:57.414Z,42.30
2018-08-22T13:49:01.583Z,41.75
2018-08-22T13:50:05.778Z,41.97